Time;durP1;ratioP1;P1;durP2;ratioP2;P2;SDS_P1;SDS_P2;PMS_P1;PMS_P2;Temp;Humidity;BMP_temperature;BMP_pressure;BME280_temperature;BME280_humidity;BME280_pressure;Samples;Min_cycle;Max_cycle;Signal;HPM_P1;HPM_P2
2023/06/17 00:02:13;;;;;;;;;;;;;;;16.89;51.45;101630.41;5042728;28;19964;-69
2023/06/17 00:04:39;;;;;;;;;;;;;;;16.85;51.89;101636.34;5041091;28;20062;-70
2023/06/17 00:07:04;;;;;;;;;;;;;;;16.81;52.16;101635.91;5036016;28;19970;-70
2023/06/17 00:09:29;;;;;;;;;;;;;;;16.80;52.22;101634.25;5042722;28;19935;-70
2023/06/17 00:11:57;;;;;;;;;;;;;;;16.80;52.72;101631.56;5043309;28;19920;-70
2023/06/17 00:14:23;;;;;;;;;;;;;;;16.77;52.88;101631.94;5042722;28;19921;-70
2023/06/17 00:16:48;;;;;;;;;;;;;;;16.67;53.22;101631.41;5042417;28;19936;-71
2023/06/17 00:19:16;;;;;;;;;;;;;;;16.56;53.45;101624.69;5043381;28;19920;-70
2023/06/17 00:21:48;;;;;;;;;;;;;;;16.51;53.12;101615.56;5035816;28;19956;-70
2023/06/17 00:24:13;;;;;;;;;;;;;;;16.54;52.66;101620.53;5014745;28;19943;-71
2023/06/17 00:26:38;;;;;;;;;;;;;;;16.59;52.98;101618.94;5033855;28;20542;-70
2023/06/17 00:29:07;;;;;;;;;;;;;;;16.59;53.91;101608.22;5044863;28;19917;-70
2023/06/17 00:31:32;;;;;;;;;;;;;;;16.57;54.25;101614.78;5030418;28;19975;-70
2023/06/17 00:33:58;;;;;;;;;;;;;;;16.53;54.63;101614.34;5044968;28;19924;-70
2023/06/17 00:36:23;;;;;;;;;;;;;;;16.46;55.18;101613.41;5039768;28;20231;-70
2023/06/17 00:38:48;;;;;;;;;;;;;;;16.33;55.21;101608.75;5038648;28;19999;-69
2023/06/17 00:41:13;;;;;;;;;;;;;;;16.25;55.09;101614.25;5038554;28;19924;-69
2023/06/17 00:43:38;;;;;;;;;;;;;;;16.24;54.76;101620.63;5027785;28;19917;-69
2023/06/17 00:46:04;;;;;;;;;;;;;;;16.23;54.60;101618.97;5035052;28;19944;-69
2023/06/17 00:48:29;;;;;;;;;;;;;;;16.21;54.87;101617.50;5038594;28;19971;-69
2023/06/17 00:51:01;;;;;;;;;;;;;;;16.22;54.60;101620.00;5041318;28;20016;-69
2023/06/17 00:53:26;;;;;;;;;;;;;;;16.26;55.03;101610.53;5032020;28;19924;-70
2023/06/17 00:55:51;;;;;;;;;;;;;;;16.29;54.35;101612.84;5033979;28;19917;-70
2023/06/17 00:58:18;;;;;;;;;;;;;;;16.34;54.58;101626.50;5035326;28;19921;-70
2023/06/17 01:00:43;;;;;;;;;;;;;;;16.37;54.19;101622.63;5038107;28;19986;-69
2023/06/17 01:03:09;;;;;;;;;;;;;;;16.35;54.42;101617.44;5033963;28;20417;-70
2023/06/17 01:05:34;;;;;;;;;;;;;;;16.27;54.84;101612.19;5047475;28;19918;-70
2023/06/17 01:08:16;;;;;;;;;;;;;;;16.15;54.56;101613.69;5034804;28;20477;-70
2023/06/17 01:10:44;;;;;;;;;;;;;;;16.01;55.33;101607.38;5030378;28;19928;-70
2023/06/17 01:13:11;;;;;;;;;;;;;;;15.89;55.57;101608.00;5038406;28;19916;-70
2023/06/17 01:15:37;;;;;;;;;;;;;;;15.76;56.00;101606.81;5040610;28;19925;-70
2023/06/17 01:18:03;;;;;;;;;;;;;;;15.65;56.39;101601.13;5042457;28;19923;-70
2023/06/17 01:20:28;;;;;;;;;;;;;;;15.55;56.59;101601.34;5041880;28;20369;-70
2023/06/17 01:22:55;;;;;;;;;;;;;;;15.48;56.88;101606.63;5039642;28;19996;-70
2023/06/17 01:25:20;;;;;;;;;;;;;;;15.43;56.87;101602.84;5035076;28;19914;-70
2023/06/17 01:27:49;;;;;;;;;;;;;;;15.38;57.01;101607.91;5045154;28;19919;-70
2023/06/17 01:30:14;;;;;;;;;;;;;;;15.31;57.22;101601.59;5037712;28;19947;-70
2023/06/17 01:32:39;;;;;;;;;;;;;;;15.26;57.46;101604.84;5039875;28;19917;-70
2023/06/17 01:35:13;;;;;;;;;;;;;;;15.18;57.91;101597.72;5040240;28;19958;-70
2023/06/17 01:37:51;;;;;;;;;;;;;;;15.13;57.58;101605.47;5031628;28;19913;-70
2023/06/17 01:40:18;;;;;;;;;;;;;;;15.03;57.62;101598.69;5031080;28;19917;-70
2023/06/17 01:42:45;;;;;;;;;;;;;;;14.97;58.14;101597.59;5046554;28;19956;-70
2023/06/17 01:45:11;;;;;;;;;;;;;;;14.88;58.88;101596.00;5042710;28;19997;-70
2023/06/17 01:47:37;;;;;;;;;;;;;;;14.82;59.01;101594.06;5035544;28;19921;-70
2023/06/17 01:50:04;;;;;;;;;;;;;;;14.79;59.37;101597.91;5043467;28;19927;-70
2023/06/17 01:52:29;;;;;;;;;;;;;;;14.74;59.71;101594.09;5022656;28;19921;-69
2023/06/17 01:54:55;;;;;;;;;;;;;;;14.70;59.98;101592.78;5054022;28;19924;-69
2023/06/17 01:57:20;;;;;;;;;;;;;;;14.67;60.28;101590.47;5024383;28;20011;-69
2023/06/17 01:59:46;;;;;;;;;;;;;;;14.66;59.62;101592.31;5041827;28;20015;-69
2023/06/17 02:02:11;;;;;;;;;;;;;;;14.69;59.09;101597.31;5043416;28;19924;-69
2023/06/17 02:04:36;;;;;;;;;;;;;;;14.73;59.27;101595.94;5043758;28;20007;-69
2023/06/17 02:07:01;;;;;;;;;;;;;;;14.79;59.14;101600.59;5033211;28;19924;-69
2023/06/17 02:09:27;;;;;;;;;;;;;;;14.82;59.62;101597.56;5044786;28;19971;-69
2023/06/17 02:11:52;;;;;;;;;;;;;;;14.83;59.28;101599.22;5042615;28;19928;-69
2023/06/17 02:14:17;;;;;;;;;;;;;;;14.79;59.80;101597.09;5043466;28;19921;-69
2023/06/17 02:16:44;;;;;;;;;;;;;;;14.72;59.85;101591.59;5046222;28;20055;-69
2023/06/17 02:19:09;;;;;;;;;;;;;;;14.63;60.38;101586.50;5032988;28;19913;-69
2023/06/17 02:21:34;;;;;;;;;;;;;;;14.54;60.63;101580.41;5048352;28;19917;-70
2023/06/17 02:23:59;;;;;;;;;;;;;;;14.48;61.14;101589.13;5040026;28;19924;-70
2023/06/17 02:26:25;;;;;;;;;;;;;;;14.44;61.26;101571.75;5042270;28;19917;-69
2023/06/17 02:28:50;;;;;;;;;;;;;;;14.43;60.59;101573.59;5038643;28;20506;-69
2023/06/17 02:31:15;;;;;;;;;;;;;;;14.49;60.99;101572.91;5038527;28;19928;-69
2023/06/17 02:33:40;;;;;;;;;;;;;;;14.56;61.26;101575.69;5036089;28;19963;-69
2023/06/17 02:36:06;;;;;;;;;;;;;;;14.60;61.39;101581.53;5033884;28;20022;-69
2023/06/17 02:38:32;;;;;;;;;;;;;;;14.60;61.47;101574.34;5036252;28;19917;-69
2023/06/17 02:40:57;;;;;;;;;;;;;;;14.63;61.50;101570.47;5046402;28;19917;-71
2023/06/17 02:43:23;;;;;;;;;;;;;;;14.62;61.48;101576.81;5042413;28;20416;-69
2023/06/17 02:45:48;;;;;;;;;;;;;;;14.52;61.58;101577.91;5034994;28;19924;-69
2023/06/17 02:48:13;;;;;;;;;;;;;;;14.40;61.81;101571.25;5041984;28;19920;-69
2023/06/17 02:50:38;;;;;;;;;;;;;;;14.33;61.85;101564.97;5037832;28;19928;-69
2023/06/17 02:53:04;;;;;;;;;;;;;;;14.30;61.73;101564.50;5044772;28;19999;-69
2023/06/17 02:55:29;;;;;;;;;;;;;;;14.25;61.65;101565.84;5036513;28;19929;-69
2023/06/17 02:57:54;;;;;;;;;;;;;;;14.19;62.05;101561.22;5038782;28;19925;-69
2023/06/17 03:00:20;;;;;;;;;;;;;;;14.14;62.14;101557.41;5041657;28;19924;-69
2023/06/17 03:02:45;;;;;;;;;;;;;;;14.06;62.99;101552.13;5037954;28;20348;-69
2023/06/17 03:05:12;;;;;;;;;;;;;;;13.98;63.39;101554.84;5040393;28;19963;-69
2023/06/17 03:07:40;;;;;;;;;;;;;;;13.89;63.52;101557.56;5038270;28;19912;-69
2023/06/17 03:10:05;;;;;;;;;;;;;;;13.81;63.38;101552.25;5043140;28;19963;-69
2023/06/17 03:12:30;;;;;;;;;;;;;;;13.76;63.62;101557.28;5031455;28;19964;-69
2023/06/17 03:14:57;;;;;;;;;;;;;;;13.74;63.71;101559.28;5042496;28;19924;-70
2023/06/17 03:17:22;;;;;;;;;;;;;;;13.81;63.55;101564.75;5045421;28;19925;-71
2023/06/17 03:19:47;;;;;;;;;;;;;;;13.88;62.65;101555.91;5042062;28;19936;-70
2023/06/17 03:22:12;;;;;;;;;;;;;;;13.92;62.59;101559.88;5050297;28;19995;-70
2023/06/17 03:24:37;;;;;;;;;;;;;;;13.92;62.91;101556.38;5036655;28;19917;-70
2023/06/17 03:27:03;;;;;;;;;;;;;;;13.92;63.28;101554.53;5034290;28;19921;-70
2023/06/17 03:29:29;;;;;;;;;;;;;;;13.90;63.66;101551.22;5048316;28;19990;-70
2023/06/17 03:31:56;;;;;;;;;;;;;;;13.87;63.86;101551.53;5039374;28;20007;-70
2023/06/17 03:34:22;;;;;;;;;;;;;;;13.83;63.96;101552.06;5039566;28;19947;-70
2023/06/17 03:36:47;;;;;;;;;;;;;;;13.77;64.46;101560.78;5038707;28;19921;-70
2023/06/17 03:39:12;;;;;;;;;;;;;;;13.72;63.84;101553.28;5033897;28;19927;-70
2023/06/17 03:41:37;;;;;;;;;;;;;;;13.63;63.86;101557.00;5030089;28;19971;-70
2023/06/17 03:44:03;;;;;;;;;;;;;;;13.57;64.20;101557.69;5033938;28;20407;-70
2023/06/17 03:46:28;;;;;;;;;;;;;;;13.56;64.05;101553.34;5039313;28;19921;-70
2023/06/17 03:48:53;;;;;;;;;;;;;;;13.56;64.10;101550.69;5037479;28;19917;-70
2023/06/17 03:51:18;;;;;;;;;;;;;;;13.58;64.22;101551.34;5027473;28;20058;-70
2023/06/17 03:53:43;;;;;;;;;;;;;;;13.58;64.72;101551.34;5043860;28;19917;-70
2023/06/17 03:56:08;;;;;;;;;;;;;;;13.56;64.49;101551.50;5042645;28;20009;-69
2023/06/17 03:58:34;;;;;;;;;;;;;;;13.53;64.76;101551.84;5041982;28;20416;-70
2023/06/17 04:00:59;;;;;;;;;;;;;;;13.52;64.96;101550.19;5045942;28;19920;-70
2023/06/17 04:03:26;;;;;;;;;;;;;;;13.50;65.36;101546.88;5042464;28;19924;-70
2023/06/17 04:05:52;;;;;;;;;;;;;;;13.50;65.38;101549.53;5045087;28;19923;-69
2023/06/17 04:08:18;;;;;;;;;;;;;;;13.52;65.02;101544.03;5042798;28;19921;-70
2023/06/17 04:10:43;;;;;;;;;;;;;;;13.59;64.93;101553.84;5035458;28;20271;-70
2023/06/17 04:13:09;;;;;;;;;;;;;;;13.66;65.01;101548.66;5037790;28;19924;-70
2023/06/17 04:15:34;;;;;;;;;;;;;;;13.73;65.15;101557.63;5041581;28;19921;-70
2023/06/17 04:18:02;;;;;;;;;;;;;;;13.81;65.30;101551.41;5033991;28;19921;-70
2023/06/17 04:20:27;;;;;;;;;;;;;;;13.87;65.42;101548.03;5034735;28;19955;-71
2023/06/17 04:22:52;;;;;;;;;;;;;;;13.83;66.10;101555.56;5044472;28;19964;-68
2023/06/17 04:25:20;;;;;;;;;;;;;;;13.78;66.22;101551.75;5041027;28;20310;-68
2023/06/17 04:27:45;;;;;;;;;;;;;;;13.75;66.06;101552.09;5047987;28;19916;-68
2023/06/17 04:30:11;;;;;;;;;;;;;;;13.76;66.37;101545.75;5045472;28;20011;-68
2023/06/17 04:32:38;;;;;;;;;;;;;;;13.83;65.83;101546.72;5038474;28;19928;-68
2023/06/17 04:35:04;;;;;;;;;;;;;;;13.94;65.83;101547.19;5036644;28;19917;-68
2023/06/17 04:37:32;;;;;;;;;;;;;;;14.05;66.32;101551.28;5042361;28;20330;-69
2023/06/17 04:39:58;;;;;;;;;;;;;;;14.15;66.36;101554.56;5037165;28;19917;-69
2023/06/17 04:42:24;;;;;;;;;;;;;;;14.25;66.29;101557.84;5041191;28;19933;-68
2023/06/17 04:44:49;;;;;;;;;;;;;;;14.37;66.39;101554.75;5040399;28;19917;-68
2023/06/17 04:47:19;;;;;;;;;;;;;;;14.43;66.13;101557.56;5043185;28;19921;-68
2023/06/17 04:49:45;;;;;;;;;;;;;;;14.52;65.91;101553.03;5030873;28;19921;-68
2023/06/17 04:52:11;;;;;;;;;;;;;;;14.62;65.88;101558.94;5038263;28;19921;-68
2023/06/17 04:54:36;;;;;;;;;;;;;;;14.72;66.30;101564.03;5034198;28;19917;-68
2023/06/17 04:57:01;;;;;;;;;;;;;;;14.81;66.37;101557.63;5036635;28;19917;-69
2023/06/17 04:59:27;;;;;;;;;;;;;;;14.87;66.42;101562.25;5039285;28;19935;-68
2023/06/17 05:01:52;;;;;;;;;;;;;;;14.95;66.85;101562.16;5053291;28;19917;-69
2023/06/17 05:04:17;;;;;;;;;;;;;;;15.04;67.34;101557.59;5036388;28;19917;-69
2023/06/17 05:06:44;;;;;;;;;;;;;;;15.11;67.51;101564.69;5039049;28;19917;-68
2023/06/17 05:09:09;;;;;;;;;;;;;;;15.13;67.12;101565.34;5030455;28;19913;-69
2023/06/17 05:11:34;;;;;;;;;;;;;;;15.16;67.86;101572.16;5038071;28;19920;-70
2023/06/17 05:13:59;;;;;;;;;;;;;;;15.19;68.22;101569.13;5040920;28;19916;-68
2023/06/17 05:16:25;;;;;;;;;;;;;;;15.23;68.22;101578.44;5046799;28;20008;-68
2023/06/17 05:18:50;;;;;;;;;;;;;;;15.27;68.63;101576.22;5043169;28;20018;-69
2023/06/17 05:21:19;;;;;;;;;;;;;;;15.33;68.99;101567.50;5045396;28;20317;-69
2023/06/17 05:23:45;;;;;;;;;;;;;;;15.38;68.83;101563.25;5034826;28;19926;-68
2023/06/17 05:26:10;;;;;;;;;;;;;;;15.46;69.05;101573.84;5038579;28;20404;-68
2023/06/17 05:28:35;;;;;;;;;;;;;;;15.53;69.23;101571.25;5054681;28;19916;-68
2023/06/17 05:31:00;;;;;;;;;;;;;;;15.61;68.84;101568.53;5030650;28;19983;-69
2023/06/17 05:33:25;;;;;;;;;;;;;;;15.72;68.58;101567.22;5041458;28;19920;-68
2023/06/17 05:35:50;;;;;;;;;;;;;;;15.82;67.85;101567.75;5042703;28;20019;-69
2023/06/17 05:38:16;;;;;;;;;;;;;;;15.89;67.14;101568.66;5031331;28;19918;-68
2023/06/17 05:40:41;;;;;;;;;;;;;;;15.99;67.11;101563.03;5041449;28;19940;-68
2023/06/17 05:43:06;;;;;;;;;;;;;;;16.10;67.82;101568.72;5041678;28;19924;-68
2023/06/17 05:45:31;;;;;;;;;;;;;;;16.18;68.06;101565.06;5040761;28;19931;-68
2023/06/17 05:47:56;;;;;;;;;;;;;;;16.23;67.99;101567.22;5044441;28;20408;-69
2023/06/17 05:50:22;;;;;;;;;;;;;;;16.27;68.07;101563.97;5031266;28;19924;-69
2023/06/17 05:52:48;;;;;;;;;;;;;;;16.33;68.07;101578.44;5034416;28;19916;-69
2023/06/17 05:55:13;;;;;;;;;;;;;;;16.37;68.18;101569.81;5039303;28;19917;-68
2023/06/17 05:57:38;;;;;;;;;;;;;;;16.46;68.53;101567.00;5038845;28;20388;-68
2023/06/17 06:00:04;;;;;;;;;;;;;;;16.54;68.36;101565.06;5019473;28;20397;-69
2023/06/17 06:02:29;;;;;;;;;;;;;;;16.63;68.71;101566.56;5040978;28;19916;-69
2023/06/17 06:04:54;;;;;;;;;;;;;;;16.78;68.31;101574.59;5036513;28;19925;-69
2023/06/17 06:07:19;;;;;;;;;;;;;;;16.95;67.77;101578.63;5046617;28;20000;-70
2023/06/17 06:09:44;;;;;;;;;;;;;;;17.08;67.23;101577.94;5045249;28;19917;-70
2023/06/17 06:12:10;;;;;;;;;;;;;;;17.21;66.85;101572.63;5039592;28;19921;-70
2023/06/17 06:14:35;;;;;;;;;;;;;;;17.39;66.41;101574.00;5033303;28;19935;-70
2023/06/17 06:17:01;;;;;;;;;;;;;;;17.52;66.07;101568.69;5037919;28;19917;-70
2023/06/17 06:19:26;;;;;;;;;;;;;;;17.63;66.03;101568.94;5039028;28;20400;-70
2023/06/17 06:21:51;;;;;;;;;;;;;;;17.76;66.00;101570.09;5036253;28;19952;-69
2023/06/17 06:24:16;;;;;;;;;;;;;;;17.88;66.09;101569.31;5040180;28;19917;-70
2023/06/17 06:26:41;;;;;;;;;;;;;;;18.04;65.67;101576.19;5035785;28;19917;-69
2023/06/17 06:29:09;;;;;;;;;;;;;;;18.17;65.13;101568.16;5045000;28;19928;-70
2023/06/17 06:31:34;;;;;;;;;;;;;;;18.31;64.50;101576.28;5033750;28;19960;-70
2023/06/17 06:33:59;;;;;;;;;;;;;;;18.40;63.77;101573.19;5042177;28;20007;-70
2023/06/17 06:36:24;;;;;;;;;;;;;;;18.51;63.84;101564.53;5041468;28;19971;-68
2023/06/17 06:38:50;;;;;;;;;;;;;;;18.62;63.34;101573.00;5047972;28;20291;-68
2023/06/17 06:41:15;;;;;;;;;;;;;;;18.72;63.05;101568.06;5037778;28;19921;-69
2023/06/17 06:43:40;;;;;;;;;;;;;;;18.82;62.27;101577.41;5031334;28;19913;-68
2023/06/17 06:46:06;;;;;;;;;;;;;;;18.92;61.98;101578.84;5050092;28;19948;-69
2023/06/17 06:48:31;;;;;;;;;;;;;;;19.02;61.11;101577.38;5043890;28;19924;-69
2023/06/17 06:50:56;;;;;;;;;;;;;;;19.11;60.71;101575.34;5017039;28;19964;-69
2023/06/17 06:53:23;;;;;;;;;;;;;;;19.19;60.80;101575.09;5037430;28;20325;-69
2023/06/17 06:55:49;;;;;;;;;;;;;;;19.29;60.62;101574.66;5040411;28;20004;-69
2023/06/17 06:58:14;;;;;;;;;;;;;;;19.40;60.26;101576.72;5034679;28;19995;-69
2023/06/17 07:00:39;;;;;;;;;;;;;;;19.49;60.32;101573.59;5048114;28;20032;-69
2023/06/17 07:03:05;;;;;;;;;;;;;;;19.59;59.50;101573.16;5036012;28;19917;-68
2023/06/17 07:05:30;;;;;;;;;;;;;;;19.68;59.02;101577.31;5035601;28;19944;-69
2023/06/17 07:07:55;;;;;;;;;;;;;;;19.77;58.13;101572.50;5044356;28;19917;-69
2023/06/17 07:10:20;;;;;;;;;;;;;;;19.83;57.61;101577.03;5040664;28;19913;-70
2023/06/17 07:12:45;;;;;;;;;;;;;;;19.92;57.12;101574.91;5040848;28;19921;-69
2023/06/17 07:15:11;;;;;;;;;;;;;;;19.98;56.25;101577.59;5043076;28;19916;-69
2023/06/17 07:17:36;;;;;;;;;;;;;;;20.06;56.17;101577.34;5034595;28;19932;-68
2023/06/17 07:20:05;;;;;;;;;;;;;;;20.13;56.03;101576.47;5020677;28;19925;-69
2023/06/17 07:22:30;;;;;;;;;;;;;;;20.18;55.10;101573.97;5035086;28;19921;-69
2023/06/17 07:24:55;;;;;;;;;;;;;;;20.26;54.18;101576.41;5040695;28;19920;-69
2023/06/17 07:27:20;;;;;;;;;;;;;;;20.33;54.31;101572.63;5036826;28;19956;-69
2023/06/17 07:29:45;;;;;;;;;;;;;;;20.41;54.32;101575.09;5040388;28;19917;-69
2023/06/17 07:32:11;;;;;;;;;;;;;;;20.49;54.35;101576.69;5038130;28;20355;-69
2023/06/17 07:34:36;;;;;;;;;;;;;;;20.55;53.29;101578.53;5043868;28;19913;-68
2023/06/17 07:37:02;;;;;;;;;;;;;;;20.60;52.62;101572.50;5038748;28;20083;-69
2023/06/17 07:39:27;;;;;;;;;;;;;;;20.66;52.04;101571.59;5034061;28;19917;-69
2023/06/17 07:41:52;;;;;;;;;;;;;;;20.72;51.58;101579.66;5028711;28;19914;-71
2023/06/17 07:44:18;;;;;;;;;;;;;;;20.79;50.81;101578.75;5040264;28;19939;-70
2023/06/17 07:46:43;;;;;;;;;;;;;;;20.86;50.60;101571.47;5037208;28;19913;-70
2023/06/17 07:49:08;;;;;;;;;;;;;;;20.90;49.97;101575.38;5031615;28;19921;-70
2023/06/17 07:51:33;;;;;;;;;;;;;;;20.96;49.09;101575.31;5038715;28;19917;-70
2023/06/17 07:53:58;;;;;;;;;;;;;;;21.02;49.26;101573.59;5034778;28;19935;-70
2023/06/17 07:56:25;;;;;;;;;;;;;;;21.06;48.25;101569.38;5049364;28;19924;-70
2023/06/17 07:58:50;;;;;;;;;;;;;;;21.12;48.29;101568.53;5034584;28;20016;-70
2023/06/17 08:01:15;;;;;;;;;;;;;;;21.19;48.31;101571.97;5041618;28;20065;-69
2023/06/17 08:03:40;;;;;;;;;;;;;;;21.26;47.93;101563.84;5039273;28;20371;-70
2023/06/17 08:06:06;;;;;;;;;;;;;;;21.35;47.67;101570.59;5037276;28;19913;-70
2023/06/17 08:08:31;;;;;;;;;;;;;;;21.43;47.11;101559.50;5030951;28;19913;-70
2023/06/17 08:10:56;;;;;;;;;;;;;;;21.53;46.79;101559.78;5036565;28;19932;-70
2023/06/17 08:13:21;;;;;;;;;;;;;;;21.64;45.88;101552.78;5040604;28;19967;-70
2023/06/17 08:15:46;;;;;;;;;;;;;;;21.71;45.76;101558.16;5037303;28;20381;-70
2023/06/17 08:18:12;;;;;;;;;;;;;;;21.79;45.93;101555.94;5048145;28;20007;-70
2023/06/17 08:20:37;;;;;;;;;;;;;;;21.90;46.08;101562.47;5032707;28;19920;-70
2023/06/17 08:23:02;;;;;;;;;;;;;;;21.98;45.63;101559.47;5035441;28;20300;-70
2023/06/17 08:25:28;;;;;;;;;;;;;;;22.07;45.27;101558.13;5042443;28;19917;-70
2023/06/17 08:27:53;;;;;;;;;;;;;;;22.12;45.81;101554.72;5045658;28;19939;-70
2023/06/17 08:30:18;;;;;;;;;;;;;;;22.11;43.51;101561.19;5039655;28;19913;-70
2023/06/17 08:32:43;;;;;;;;;;;;;;;22.10;43.49;101554.13;5017601;28;20560;-70
2023/06/17 08:35:08;;;;;;;;;;;;;;;22.20;44.15;101554.38;5051210;28;20011;-70
2023/06/17 08:37:34;;;;;;;;;;;;;;;22.34;44.07;101546.91;5034129;28;19967;-70
2023/06/17 08:39:59;;;;;;;;;;;;;;;22.47;43.57;101550.22;5028412;28;19980;-70
2023/06/17 08:42:26;;;;;;;;;;;;;;;22.66;43.62;101555.56;5033064;28;19952;-70
2023/06/17 08:44:52;;;;;;;;;;;;;;;22.82;43.63;101557.59;5031930;28;19920;-70
2023/06/17 08:47:17;;;;;;;;;;;;;;;22.98;43.68;101553.38;5032354;28;19921;-70
2023/06/17 08:49:43;;;;;;;;;;;;;;;23.17;42.78;101553.03;5044999;28;19917;-71
2023/06/17 08:52:11;;;;;;;;;;;;;;;23.35;42.43;101551.25;5040368;28;19944;-70
2023/06/17 08:54:40;;;;;;;;;;;;;;;23.40;41.59;101549.47;5037373;28;19939;-70
2023/06/17 08:57:08;;;;;;;;;;;;;;;23.43;41.78;101551.72;5049569;28;20531;-70
2023/06/17 08:59:33;;;;;;;;;;;;;;;23.57;41.89;101552.28;5046770;28;19921;-70
2023/06/17 09:01:59;;;;;;;;;;;;;;;23.79;41.79;101547.88;5037141;28;19927;-70
2023/06/17 09:04:26;;;;;;;;;;;;;;;23.98;41.26;101545.78;5037055;28;19925;-70
2023/06/17 09:06:52;;;;;;;;;;;;;;;24.07;41.00;101546.25;5042965;28;20409;-70
2023/06/17 09:09:17;;;;;;;;;;;;;;;24.21;41.37;101552.19;5039831;28;20035;-71
2023/06/17 09:11:47;;;;;;;;;;;;;;;24.43;40.96;101545.00;5044034;28;20007;-70
2023/06/17 09:14:12;;;;;;;;;;;;;;;24.64;40.31;101557.03;5045774;28;20328;-70
2023/06/17 09:16:38;;;;;;;;;;;;;;;24.85;39.42;101552.75;5047303;28;19924;-70
2023/06/17 09:19:05;;;;;;;;;;;;;;;25.02;39.51;101556.31;5039116;28;19924;-70
2023/06/17 09:21:31;;;;;;;;;;;;;;;25.08;38.26;101544.44;5029029;28;20605;-70
2023/06/17 09:23:56;;;;;;;;;;;;;;;25.09;37.75;101554.22;5043257;28;20024;-70
2023/06/17 09:26:25;;;;;;;;;;;;;;;25.16;37.72;101544.03;5047319;28;19932;-70
2023/06/17 09:28:50;;;;;;;;;;;;;;;25.38;38.50;101546.75;5030380;28;20398;-70
2023/06/17 09:31:18;;;;;;;;;;;;;;;25.63;38.09;101551.69;5028391;28;19967;-70
2023/06/17 09:33:43;;;;;;;;;;;;;;;25.78;37.52;101551.94;5034494;28;19967;-71
2023/06/17 09:36:08;;;;;;;;;;;;;;;25.80;35.13;101543.50;5037548;28;19921;-69
2023/06/17 09:38:35;;;;;;;;;;;;;;;25.86;35.60;101553.38;5036384;28;20024;-69
2023/06/17 09:41:01;;;;;;;;;;;;;;;26.06;35.06;101548.16;5038843;28;19925;-69
2023/06/17 09:43:26;;;;;;;;;;;;;;;26.20;35.63;101545.81;5046321;28;19913;-69
2023/06/17 09:46:01;;;;;;;;;;;;;;;26.30;33.81;101547.81;5032216;28;20352;-69
2023/06/17 09:48:39;;;;;;;;;;;;;;;26.30;33.77;101540.47;5035461;28;19913;-69
2023/06/17 09:51:09;;;;;;;;;;;;;;;26.29;33.79;101546.16;5035769;28;20393;-69
2023/06/17 09:53:35;;;;;;;;;;;;;;;26.38;33.98;101539.22;5038729;28;20011;-69
2023/06/17 09:56:00;;;;;;;;;;;;;;;26.38;33.68;101544.69;5040670;28;20554;-68
2023/06/17 09:58:30;;;;;;;;;;;;;;;26.51;33.28;101534.16;5042978;28;19923;-69
2023/06/17 10:01:00;;;;;;;;;;;;;;;26.74;33.15;101537.59;5045399;28;19959;-69
2023/06/17 10:03:25;;;;;;;;;;;;;;;26.89;33.51;101535.00;5031656;28;19917;-69
2023/06/17 10:05:56;;;;;;;;;;;;;;;26.98;33.14;101530.69;5043221;28;19928;-69
2023/06/17 10:08:22;;;;;;;;;;;;;;;27.08;32.71;101533.50;5047824;28;19917;-69
2023/06/17 10:10:48;;;;;;;;;;;;;;;27.02;32.81;101533.75;5044361;28;20450;-65
2023/06/17 10:13:16;;;;;;;;;;;;;;;27.13;33.38;101532.72;5042241;28;19931;-69
2023/06/17 10:15:41;;;;;;;;;;;;;;;27.30;33.30;101527.06;5050762;28;19924;-69
2023/06/17 10:18:08;;;;;;;;;;;;;;;27.42;32.63;101519.47;5054548;28;19916;-69
2023/06/17 10:20:33;;;;;;;;;;;;;;;27.60;33.24;101518.19;5043261;28;20461;-69
2023/06/17 10:23:00;;;;;;;;;;;;;;;27.80;32.85;101518.31;5044223;28;20409;-69
2023/06/17 10:25:26;;;;;;;;;;;;;;;28.00;32.22;101512.88;5047032;28;19928;-69
2023/06/17 10:27:51;;;;;;;;;;;;;;;28.24;32.57;101517.81;5043229;28;20011;-69
2023/06/17 10:30:26;;;;;;;;;;;;;;;28.40;31.03;101522.25;5033338;28;20011;-68
2023/06/17 10:32:54;;;;;;;;;;;;;;;28.50;30.63;101516.75;5040274;28;20007;-70
2023/06/17 10:35:19;;;;;;;;;;;;;;;28.51;30.21;101512.94;5039417;28;20324;-70
2023/06/17 10:37:47;;;;;;;;;;;;;;;28.59;30.35;101517.03;5043682;28;19932;-70
2023/06/17 10:40:21;;;;;;;;;;;;;;;28.74;30.82;101517.03;5037781;28;19963;-69
2023/06/17 10:43:01;;;;;;;;;;;;;;;28.91;30.30;101517.56;5046451;28;19917;-70
2023/06/17 10:45:46;;;;;;;;;;;;;;;29.09;29.80;101516.16;5045561;28;19925;-69
2023/06/17 10:48:21;;;;;;;;;;;;;;;28.80;28.57;101515.09;5041727;28;19927;-69
2023/06/17 10:50:54;;;;;;;;;;;;;;;28.73;29.47;101509.09;5044064;28;19936;-69
2023/06/17 10:53:24;;;;;;;;;;;;;;;28.81;28.72;101511.25;5029937;28;20002;-69
2023/06/17 10:55:50;;;;;;;;;;;;;;;28.69;28.95;101508.84;5039609;28;19924;-70
2023/06/17 10:58:15;;;;;;;;;;;;;;;28.84;29.22;101507.97;5040734;28;20238;-69
2023/06/17 11:00:40;;;;;;;;;;;;;;;28.97;28.89;101500.06;5041392;28;19959;-69
2023/06/17 11:03:07;;;;;;;;;;;;;;;29.06;30.16;101496.75;5046305;28;19913;-70
2023/06/17 11:05:36;;;;;;;;;;;;;;;28.97;28.11;101494.59;5040699;28;19917;-69
2023/06/17 11:08:04;;;;;;;;;;;;;;;28.76;27.89;101495.69;5040470;28;19920;-70
2023/06/17 11:10:30;;;;;;;;;;;;;;;28.78;28.52;101496.22;5030300;28;20337;-69
2023/06/17 11:12:55;;;;;;;;;;;;;;;28.98;29.03;101496.22;5019818;28;19929;-70
2023/06/17 11:15:23;;;;;;;;;;;;;;;29.16;29.18;101486.56;5040224;28;19970;-70
2023/06/17 11:18:01;;;;;;;;;;;;;;;29.35;28.00;101488.69;5033909;28;19947;-69
2023/06/17 11:20:28;;;;;;;;;;;;;;;29.52;27.88;101484.56;5048106;28;19921;-69
2023/06/17 11:22:53;;;;;;;;;;;;;;;29.65;27.73;101490.50;5034197;28;19920;-70
2023/06/17 11:25:18;;;;;;;;;;;;;;;29.48;26.57;101472.50;5035461;28;19916;-70
2023/06/17 11:27:44;;;;;;;;;;;;;;;29.46;27.42;101473.88;5042459;28;20413;-70
2023/06/17 11:30:09;;;;;;;;;;;;;;;29.54;26.99;101465.13;5044475;28;19995;-70
2023/06/17 11:32:34;;;;;;;;;;;;;;;29.73;26.95;101468.81;5048882;28;19925;-69
2023/06/17 11:35:00;;;;;;;;;;;;;;;29.72;26.80;101471.84;5046169;28;19962;-70
2023/06/17 11:37:25;;;;;;;;;;;;;;;29.83;26.93;101466.03;5032580;28;20520;-69
2023/06/17 11:39:55;;;;;;;;;;;;;;;29.87;26.50;101463.53;5043952;28;19921;-70
2023/06/17 11:42:20;;;;;;;;;;;;;;;29.83;25.61;101457.81;5038645;28;19921;-70
2023/06/17 11:44:47;;;;;;;;;;;;;;;29.93;26.04;101456.91;5052021;28;19927;-70
2023/06/17 11:47:12;;;;;;;;;;;;;;;29.96;24.74;101450.84;5032430;28;20390;-69
2023/06/17 11:49:40;;;;;;;;;;;;;;;29.81;24.60;101454.53;5034696;28;19917;-71
2023/06/17 11:52:08;;;;;;;;;;;;;;;29.56;24.98;101450.03;5035968;28;19948;-70
2023/06/17 11:54:34;;;;;;;;;;;;;;;29.29;24.97;101447.69;5043253;28;19931;-70
2023/06/17 11:56:59;;;;;;;;;;;;;;;29.17;25.09;101447.19;5035676;28;19920;-71
2023/06/17 11:59:25;;;;;;;;;;;;;;;29.24;25.50;101446.91;5030544;28;19932;-71
2023/06/17 12:01:51;;;;;;;;;;;;;;;29.46;25.88;101441.88;5040581;28;19938;-71
2023/06/17 12:04:17;;;;;;;;;;;;;;;29.51;26.05;101435.56;5036944;28;19913;-71
2023/06/17 12:06:42;;;;;;;;;;;;;;;29.60;26.76;101431.13;5037689;28;20332;-71
2023/06/17 12:09:08;;;;;;;;;;;;;;;29.78;26.82;101437.84;5040032;28;20262;-72
2023/06/17 12:11:37;;;;;;;;;;;;;;;29.92;26.71;101431.44;5039601;28;20016;-72
2023/06/17 12:14:07;;;;;;;;;;;;;;;29.86;26.21;101429.84;5030262;28;19913;-72
2023/06/17 12:16:36;;;;;;;;;;;;;;;29.94;26.45;101433.06;5039801;28;19921;-72
2023/06/17 12:19:04;;;;;;;;;;;;;;;30.13;26.06;101439.53;5036438;28;20349;-71
2023/06/17 12:21:29;;;;;;;;;;;;;;;30.33;26.27;101433.03;5029853;28;19913;-72
2023/06/17 12:23:55;;;;;;;;;;;;;;;30.39;24.68;101429.97;5046523;28;19916;-72
2023/06/17 12:26:23;;;;;;;;;;;;;;;30.42;24.72;101431.31;5034815;28;20380;-72
2023/06/17 12:28:48;;;;;;;;;;;;;;;30.36;24.50;101429.72;5015597;28;19936;-71
2023/06/17 12:31:14;;;;;;;;;;;;;;;30.41;25.62;101424.22;5018987;28;19920;-71